createdAt,value
2018-02-11T00:00:17.070Z,38.00
2018-02-11T00:01:17.082Z,35.00
2018-02-11T00:02:17.094Z,36.50
2018-02-11T00:03:17.103Z,36.20
2018-02-11T00:04:17.123Z,35.20
2018-02-11T00:05:17.126Z,34.50
2018-02-11T00:06:17.138Z,33.70
2018-02-11T00:07:17.154Z,32.20
2018-02-11T00:08:17.175Z,30.10
2018-02-11T00:09:17.174Z,30.90
2018-02-11T00:10:17.197Z,31.10
2018-02-11T00:11:17.200Z,32.30
2018-02-11T00:12:17.220Z,30.70
2018-02-11T00:13:17.236Z,28.50
2018-02-11T00:14:17.235Z,30.00
2018-02-11T00:15:17.257Z,32.10
2018-02-11T00:16:17.273Z,30.70
2018-02-11T00:17:17.277Z,30.60
2018-02-11T00:18:17.301Z,31.40
2018-02-11T00:19:17.315Z,31.20
2018-02-11T00:20:17.313Z,30.70
2018-02-11T00:21:17.334Z,28.30
2018-02-11T00:22:17.341Z,27.90
2018-02-11T00:23:17.351Z,26.60
2018-02-11T00:24:17.357Z,30.60
2018-02-11T00:25:17.371Z,28.40
2018-02-11T00:26:17.385Z,29.90
2018-02-11T00:27:17.406Z,28.90
2018-02-11T00:28:17.408Z,26.70
2018-02-11T00:29:17.419Z,27.90
2018-02-11T00:30:17.433Z,30.80
2018-02-11T00:31:17.446Z,28.30
2018-02-11T00:32:17.461Z,28.50
2018-02-11T00:33:17.470Z,26.10
2018-02-11T00:34:17.481Z,29.00
2018-02-11T00:35:17.498Z,26.50
2018-02-11T00:36:17.505Z,30.70
2018-02-11T00:37:17.524Z,29.50
2018-02-11T00:38:17.534Z,28.30
2018-02-11T00:39:17.543Z,27.40
2018-02-11T00:40:17.557Z,28.50
2018-02-11T00:41:17.577Z,29.60
2018-02-11T00:42:17.577Z,31.50
2018-02-11T00:43:17.600Z,27.00
2018-02-11T00:44:17.607Z,27.60
2018-02-11T00:45:17.623Z,27.30
2018-02-11T00:46:17.629Z,26.50
2018-02-11T00:47:17.643Z,27.70
2018-02-11T00:48:17.655Z,26.90
2018-02-11T00:49:17.666Z,29.50
2018-02-11T00:50:17.678Z,25.80
2018-02-11T00:51:17.696Z,28.60
2018-02-11T00:52:17.702Z,27.70
2018-02-11T00:53:17.717Z,25.90
2018-02-11T00:54:17.729Z,27.00
2018-02-11T00:55:17.738Z,27.60
2018-02-11T00:56:17.753Z,25.10
2018-02-11T00:57:17.767Z,25.70
2018-02-11T00:58:17.776Z,25.50
2018-02-11T00:59:17.790Z,25.60
2018-02-11T01:00:17.804Z,26.00
2018-02-11T01:01:17.815Z,27.60
2018-02-11T01:02:17.837Z,27.00
2018-02-11T01:03:17.838Z,27.50
2018-02-11T01:04:17.854Z,27.60
2018-02-11T01:05:17.868Z,24.80
2018-02-11T01:06:17.877Z,26.80
2018-02-11T01:07:18.012Z,26.60
2018-02-11T01:08:17.907Z,25.70
2018-02-11T01:09:17.910Z,25.50
2018-02-11T01:10:17.925Z,28.40
2018-02-11T01:11:17.937Z,27.20
2018-02-11T01:12:17.950Z,24.70
2018-02-11T01:13:17.961Z,25.70
2018-02-11T01:14:17.971Z,24.10
2018-02-11T01:15:17.988Z,24.20
2018-02-11T01:16:17.997Z,27.40
2018-02-11T01:17:18.011Z,26.40
2018-02-11T01:18:18.022Z,24.70
2018-02-11T01:19:18.041Z,24.80
2018-02-11T01:20:18.049Z,26.00
2018-02-11T01:21:18.060Z,25.70
2018-02-11T01:22:18.070Z,24.70
2018-02-11T01:23:18.084Z,22.50
2018-02-11T01:24:18.096Z,27.20
2018-02-11T01:25:18.110Z,24.10
2018-02-11T01:26:18.120Z,23.00
2018-02-11T01:27:18.133Z,22.20
2018-02-11T01:28:18.141Z,23.70
2018-02-11T01:29:18.156Z,22.30
2018-02-11T01:30:18.170Z,21.80
2018-02-11T01:31:18.181Z,22.40
2018-02-11T01:32:18.216Z,21.90
2018-02-11T01:33:18.211Z,21.50
2018-02-11T01:34:18.218Z,24.30
2018-02-11T01:35:18.230Z,18.00
2018-02-11T01:36:18.242Z,19.40
2018-02-11T01:37:18.252Z,19.30
2018-02-11T01:38:18.265Z,18.70
2018-02-11T01:39:18.278Z,20.60
2018-02-11T01:40:18.288Z,21.20
2018-02-11T01:41:18.305Z,18.70
2018-02-11T01:42:18.311Z,18.30
2018-02-11T01:43:18.326Z,19.70
2018-02-11T01:44:18.338Z,18.10
2018-02-11T01:45:18.352Z,18.70
2018-02-11T01:46:18.357Z,19.30
2018-02-11T01:47:18.378Z,20.00
2018-02-11T01:48:18.383Z,20.00
2018-02-11T01:49:18.394Z,17.40
2018-02-11T01:50:18.412Z,17.00
2018-02-11T01:51:18.418Z,17.80
2018-02-11T01:52:18.433Z,16.60
2018-02-11T01:53:18.444Z,17.60
2018-02-11T01:54:18.467Z,18.40
2018-02-11T01:55:18.466Z,17.90
2018-02-11T01:56:18.480Z,16.70
2018-02-11T01:57:18.489Z,15.50
2018-02-11T01:58:18.501Z,15.40
2018-02-11T01:59:18.520Z,15.60
2018-02-11T02:00:18.574Z,19.30
2018-02-11T02:01:18.541Z,16.50
2018-02-11T02:02:18.551Z,18.60
2018-02-11T02:03:18.562Z,17.50
2018-02-11T02:04:18.577Z,15.90
2018-02-11T02:05:18.589Z,17.40
2018-02-11T02:06:18.600Z,17.00
2018-02-11T02:07:18.615Z,16.90
2018-02-11T02:08:18.623Z,17.40
2018-02-11T02:09:18.641Z,16.60
2018-02-11T02:10:18.646Z,15.70
2018-02-11T02:11:18.658Z,17.50
2018-02-11T02:12:18.673Z,16.50
2018-02-11T02:13:18.687Z,20.40
2018-02-11T02:14:18.696Z,17.30
2018-02-11T02:15:18.710Z,15.70
2018-02-11T02:16:18.722Z,18.40
2018-02-11T02:17:18.732Z,17.30
2018-02-11T02:18:18.743Z,16.10
2018-02-11T02:19:18.754Z,14.90
2018-02-11T02:20:18.769Z,16.30
2018-02-11T02:21:18.778Z,14.30
2018-02-11T02:22:18.793Z,16.80
2018-02-11T02:23:18.803Z,16.10
2018-02-11T02:24:18.816Z,16.00
2018-02-11T02:25:18.828Z,15.10
2018-02-11T02:26:18.840Z,17.50
2018-02-11T02:27:18.852Z,17.70
2018-02-11T02:28:18.863Z,16.00
2018-02-11T02:29:18.876Z,15.30
2018-02-11T02:30:18.888Z,18.30
2018-02-11T02:31:18.901Z,17.20
2018-02-11T02:32:18.915Z,19.00
2018-02-11T02:33:18.924Z,17.70
2018-02-11T02:34:18.935Z,15.60
2018-02-11T02:35:18.947Z,19.90
2018-02-11T02:36:18.958Z,17.30
2018-02-11T02:37:18.972Z,17.90
2018-02-11T02:38:18.986Z,17.30
2018-02-11T02:39:18.998Z,17.80
2018-02-11T02:40:19.005Z,16.00
2018-02-11T02:41:19.021Z,15.30
2018-02-11T02:42:19.034Z,16.30
2018-02-11T02:43:19.043Z,18.20
2018-02-11T02:44:19.057Z,17.30
2018-02-11T02:45:19.074Z,17.80
2018-02-11T02:46:19.076Z,17.30
2018-02-11T02:47:19.099Z,15.70
2018-02-11T02:48:19.111Z,16.30
2018-02-11T02:49:19.119Z,17.80
2018-02-11T02:50:19.145Z,16.30
2018-02-11T02:51:19.141Z,18.10
2018-02-11T02:52:19.155Z,18.00
2018-02-11T02:53:19.162Z,18.30
2018-02-11T02:54:19.176Z,17.90
2018-02-11T02:55:19.186Z,16.90
2018-02-11T02:56:19.197Z,15.70
2018-02-11T02:57:19.210Z,16.30
2018-02-11T02:58:19.223Z,18.10
2018-02-11T02:59:19.237Z,15.20
2018-02-11T03:00:19.248Z,15.60
2018-02-11T03:01:19.260Z,16.40
2018-02-11T03:02:19.267Z,16.00
2018-02-11T03:03:19.280Z,18.10
2018-02-11T03:04:19.293Z,17.60
2018-02-11T03:05:19.307Z,17.00
2018-02-11T03:06:19.321Z,18.40
2018-02-11T03:07:19.332Z,19.70
2018-02-11T03:08:19.345Z,16.20
2018-02-11T03:09:19.359Z,14.20
2018-02-11T03:10:19.367Z,17.90
2018-02-11T03:11:19.378Z,18.20
2018-02-11T03:12:19.389Z,17.40
2018-02-11T03:13:19.404Z,14.90
2018-02-11T03:14:19.414Z,14.80
2018-02-11T03:15:19.429Z,15.10
2018-02-11T03:16:19.440Z,16.70
2018-02-11T03:17:19.456Z,15.20
2018-02-11T03:18:19.462Z,13.30
2018-02-11T03:19:19.474Z,14.40
2018-02-11T03:20:19.488Z,19.10
2018-02-11T03:21:19.499Z,15.20
2018-02-11T03:22:19.511Z,16.70
2018-02-11T03:23:19.523Z,19.50
2018-02-11T03:24:19.536Z,15.20
2018-02-11T03:25:19.551Z,14.20
2018-02-11T03:26:19.559Z,17.50
2018-02-11T03:27:19.576Z,15.20
2018-02-11T03:28:19.585Z,15.50
2018-02-11T03:29:19.594Z,16.20
2018-02-11T03:30:19.610Z,15.90
2018-02-11T03:31:19.624Z,17.40
2018-02-11T03:32:19.640Z,18.20
2018-02-11T03:33:19.641Z,16.20
2018-02-11T03:34:19.651Z,16.20
2018-02-11T03:35:19.668Z,16.30
2018-02-11T03:36:19.692Z,14.80
2018-02-11T03:37:19.693Z,17.50
2018-02-11T03:38:19.711Z,14.80
2018-02-11T03:39:19.716Z,15.80
2018-02-11T03:40:19.729Z,17.30
2018-02-11T03:41:19.741Z,18.40
2018-02-11T03:42:19.750Z,15.90
2018-02-11T03:43:19.765Z,18.80
2018-02-11T03:44:19.775Z,17.30
2018-02-11T03:45:19.788Z,16.50
2018-02-11T03:46:19.795Z,17.20
2018-02-11T03:47:19.814Z,16.10
2018-02-11T03:48:19.823Z,16.70
2018-02-11T03:49:19.840Z,17.30
2018-02-11T03:50:19.847Z,18.00
2018-02-11T03:51:19.866Z,18.00
2018-02-11T03:52:19.872Z,18.60
2018-02-11T03:53:19.885Z,17.50
2018-02-11T03:54:19.937Z,15.50
2018-02-11T03:55:19.915Z,16.10
2018-02-11T03:56:19.919Z,17.20
2018-02-11T03:57:19.957Z,19.50
2018-02-11T03:58:19.941Z,16.40
2018-02-11T03:59:19.962Z,19.70
2018-02-11T04:00:19.967Z,17.60
2018-02-11T04:01:19.980Z,17.00
2018-02-11T04:02:19.988Z,15.60
2018-02-11T04:03:20.001Z,18.20
2018-02-11T04:04:20.017Z,17.00
2018-02-11T04:05:20.031Z,16.30
2018-02-11T04:06:20.035Z,18.40
2018-02-11T04:07:20.048Z,18.30
2018-02-11T04:08:20.061Z,15.80
2018-02-11T04:09:20.075Z,19.20
2018-02-11T04:10:20.086Z,18.70
2018-02-11T04:11:20.102Z,16.80
2018-02-11T04:12:20.111Z,19.40
2018-02-11T04:13:20.131Z,17.00
2018-02-11T04:14:20.136Z,17.70
2018-02-11T04:15:20.151Z,18.90
2018-02-11T04:16:20.159Z,19.90
2018-02-11T04:17:20.170Z,21.20
2018-02-11T04:18:20.178Z,19.30
2018-02-11T04:19:20.200Z,14.70
2018-02-11T04:20:20.204Z,15.90
2018-02-11T04:21:20.225Z,19.00
2018-02-11T04:22:20.226Z,15.30
2018-02-11T04:23:20.240Z,17.20
2018-02-11T04:24:20.255Z,15.80
2018-02-11T04:25:20.269Z,14.70
2018-02-11T04:26:20.272Z,16.30
2018-02-11T04:27:20.293Z,15.80
2018-02-11T04:28:20.297Z,15.90
2018-02-11T04:29:20.317Z,14.30
2018-02-11T04:30:20.327Z,15.60
2018-02-11T04:31:20.341Z,13.60
2018-02-11T04:32:20.346Z,12.90
2018-02-11T04:33:20.367Z,12.60
2018-02-11T04:34:20.369Z,14.30
2018-02-11T04:35:20.386Z,17.60
2018-02-11T04:36:20.393Z,15.80
2018-02-11T04:37:20.416Z,15.30
2018-02-11T04:38:20.418Z,16.40
2018-02-11T04:39:20.434Z,13.00
2018-02-11T04:40:20.441Z,13.80
2018-02-11T04:41:20.458Z,17.50
2018-02-11T04:42:20.463Z,15.80
2018-02-11T04:43:20.476Z,16.90
2018-02-11T04:44:20.485Z,17.20
2018-02-11T04:45:20.503Z,13.50
2018-02-11T04:46:20.506Z,15.20
2018-02-11T04:47:20.523Z,14.90
2018-02-11T04:48:20.533Z,14.10
2018-02-11T04:49:20.552Z,17.00
2018-02-11T04:50:20.561Z,16.30
2018-02-11T04:51:20.576Z,20.80
2018-02-11T04:52:20.580Z,18.00
2018-02-11T04:53:20.600Z,12.70
2018-02-11T04:54:20.601Z,14.40
2018-02-11T04:55:20.628Z,15.70
2018-02-11T04:56:20.627Z,17.20
2018-02-11T04:57:20.647Z,16.90
2018-02-11T04:58:20.655Z,16.10
2018-02-11T04:59:20.671Z,13.10
2018-02-11T05:00:20.675Z,16.10
2018-02-11T05:01:20.692Z,13.00
2018-02-11T05:02:20.699Z,15.00
2018-02-11T05:03:20.719Z,16.60
2018-02-11T05:04:20.723Z,16.30
2018-02-11T05:05:20.741Z,15.80
2018-02-11T05:06:20.744Z,16.20
2018-02-11T05:07:20.780Z,16.40
2018-02-11T05:08:20.770Z,15.50
2018-02-11T05:09:20.782Z,12.80
2018-02-11T05:10:20.803Z,16.30
2018-02-11T05:11:20.804Z,12.50
2018-02-11T05:12:20.817Z,15.20
2018-02-11T05:13:20.836Z,15.30
2018-02-11T05:14:20.838Z,18.00
2018-02-11T05:15:20.853Z,13.80
2018-02-11T05:16:20.866Z,15.40
2018-02-11T05:17:20.879Z,14.00
2018-02-11T05:18:20.891Z,11.50
2018-02-11T05:19:20.906Z,16.50
2018-02-11T05:20:20.910Z,13.40
2018-02-11T05:21:20.932Z,14.90
2018-02-11T05:22:20.939Z,17.00
2018-02-11T05:23:20.956Z,14.40
2018-02-11T05:24:20.974Z,16.40
2018-02-11T05:25:20.982Z,19.10
2018-02-11T05:26:20.982Z,12.40
2018-02-11T05:27:21.000Z,16.10
2018-02-11T05:28:21.008Z,16.90
2018-02-11T05:29:21.024Z,17.50
2018-02-11T05:30:21.031Z,20.00
2018-02-11T05:31:21.049Z,23.40
2018-02-11T05:32:21.055Z,18.50
2018-02-11T05:33:21.066Z,18.50
2018-02-11T05:34:21.075Z,21.20
2018-02-11T05:35:21.094Z,19.40
2018-02-11T05:36:21.103Z,19.10
2018-02-11T05:37:21.116Z,18.80
2018-02-11T05:38:21.124Z,20.50
2018-02-11T05:39:21.142Z,21.00
2018-02-11T05:40:21.152Z,20.90
2018-02-11T05:41:21.162Z,18.00
2018-02-11T05:42:21.171Z,20.20
2018-02-11T05:43:21.195Z,16.40
2018-02-11T05:44:21.201Z,19.00
2018-02-11T05:45:21.210Z,17.10
2018-02-11T05:46:21.220Z,17.20
2018-02-11T05:47:21.233Z,23.40
2018-02-11T05:48:21.248Z,19.40
2018-02-11T05:49:21.262Z,17.50
2018-02-11T05:50:21.343Z,20.50
2018-02-11T05:51:21.281Z,19.30
2018-02-11T05:52:21.295Z,18.00
2018-02-11T05:53:21.303Z,16.80
2018-02-11T05:54:21.335Z,18.80
2018-02-11T05:55:21.329Z,14.60
2018-02-11T05:56:21.337Z,16.60
2018-02-11T05:57:21.391Z,14.80
2018-02-11T05:58:21.363Z,17.10
2018-02-11T05:59:21.374Z,16.00
2018-02-11T06:00:21.387Z,14.90
2018-02-11T06:01:21.401Z,19.50
2018-02-11T06:02:21.410Z,16.10
2018-02-11T06:03:21.422Z,17.80
2018-02-11T06:04:21.433Z,15.40
2018-02-11T06:05:21.452Z,13.10
2018-02-11T06:06:21.458Z,13.90
2018-02-11T06:07:21.468Z,14.30
2018-02-11T06:08:21.480Z,13.10
2018-02-11T06:09:21.492Z,13.00
2018-02-11T06:10:21.505Z,13.80
2018-02-11T06:11:21.519Z,15.70
2018-02-11T06:12:21.529Z,13.60
2018-02-11T06:13:21.546Z,16.20
2018-02-11T06:14:21.553Z,10.90
2018-02-11T06:15:21.563Z,12.10
2018-02-11T06:16:21.575Z,13.70
2018-02-11T06:17:21.590Z,17.50
2018-02-11T06:18:21.605Z,15.30
2018-02-11T06:19:21.616Z,12.00
2018-02-11T06:20:21.629Z,13.10
2018-02-11T06:21:21.638Z,14.80
2018-02-11T06:22:21.646Z,14.50
2018-02-11T06:23:21.661Z,18.40
2018-02-11T06:24:21.672Z,18.30
2018-02-11T06:25:21.682Z,13.20
2018-02-11T06:26:21.700Z,13.80
2018-02-11T06:27:21.709Z,10.70
2018-02-11T06:28:21.720Z,14.50
2018-02-11T06:29:21.775Z,12.50
2018-02-11T06:30:21.741Z,15.40
2018-02-11T06:31:21.756Z,13.50
2018-02-11T06:32:21.776Z,18.50
2018-02-11T06:33:21.777Z,16.30
2018-02-11T06:34:21.788Z,14.20
2018-02-11T06:35:21.802Z,15.90
2018-02-11T06:36:21.820Z,16.40
2018-02-11T06:37:21.830Z,19.60
2018-02-11T06:38:21.844Z,20.00
2018-02-11T06:39:21.852Z,16.80
2018-02-11T06:40:21.878Z,19.20
2018-02-11T06:41:21.874Z,15.50
2018-02-11T06:42:21.889Z,18.10
2018-02-11T06:43:21.901Z,28.40
2018-02-11T06:44:21.914Z,35.70
2018-02-11T06:45:21.922Z,28.50
2018-02-11T06:46:21.932Z,55.00
2018-02-11T06:47:21.943Z,55.80
2018-02-11T06:48:21.961Z,40.80
2018-02-11T06:49:21.974Z,19.30
2018-02-11T06:50:21.988Z,32.40
2018-02-11T06:51:21.992Z,50.00
2018-02-11T06:52:22.003Z,50.80
2018-02-11T06:53:22.028Z,43.50
2018-02-11T06:54:22.049Z,27.90
2018-02-11T06:55:22.102Z,33.90
2018-02-11T06:56:22.053Z,24.80
2018-02-11T06:57:22.061Z,37.70
2018-02-11T06:58:22.079Z,21.40
2018-02-11T06:59:22.086Z,20.00
2018-02-11T07:00:22.121Z,18.80
2018-02-11T07:01:22.117Z,14.60
2018-02-11T07:02:22.131Z,14.30
2018-02-11T07:03:22.137Z,12.50
2018-02-11T07:04:22.153Z,11.40
2018-02-11T07:05:22.156Z,13.10
2018-02-11T07:06:22.171Z,19.00
2018-02-11T07:07:22.180Z,15.70
2018-02-11T07:08:22.255Z,14.30
2018-02-11T07:09:22.205Z,16.60
2018-02-11T07:10:22.217Z,14.80
2018-02-11T07:11:22.232Z,16.10
2018-02-11T07:12:22.240Z,13.00
2018-02-11T07:13:22.254Z,14.90
2018-02-11T07:14:22.325Z,14.30
2018-02-11T07:15:22.288Z,15.00
2018-02-11T07:16:22.295Z,14.80
2018-02-11T07:17:22.480Z,15.50
2018-02-11T07:18:22.321Z,16.00
2018-02-11T07:19:22.326Z,13.40
2018-02-11T07:20:22.342Z,16.10
2018-02-11T07:21:22.351Z,12.60
2018-02-11T07:22:22.359Z,11.30
2018-02-11T07:23:22.377Z,14.10
2018-02-11T07:24:22.390Z,15.50
2018-02-11T07:25:22.411Z,16.30
2018-02-11T07:26:22.444Z,14.70
2018-02-11T07:27:22.421Z,13.90
2018-02-11T07:28:22.435Z,15.20
2018-02-11T07:29:22.448Z,12.70
2018-02-11T07:30:22.454Z,13.10
2018-02-11T07:31:22.475Z,12.50
2018-02-11T07:32:22.478Z,14.40
2018-02-11T07:33:22.490Z,14.70
2018-02-11T07:34:22.503Z,15.40
2018-02-11T07:35:22.514Z,14.70
2018-02-11T07:36:22.561Z,15.00
2018-02-11T07:37:22.540Z,14.90
2018-02-11T07:38:22.549Z,15.40
2018-02-11T07:39:22.561Z,14.60
2018-02-11T07:40:22.579Z,16.20
2018-02-11T07:41:22.587Z,13.40
2018-02-11T07:42:22.599Z,21.40
2018-02-11T07:43:22.617Z,13.60
2018-02-11T07:44:22.622Z,12.20
2018-02-11T07:45:22.644Z,12.80
2018-02-11T07:46:22.643Z,13.50
2018-02-11T07:47:22.664Z,10.80
2018-02-11T07:48:22.676Z,11.60
2018-02-11T07:49:22.685Z,15.40
2018-02-11T07:50:22.694Z,15.70
2018-02-11T07:51:22.706Z,17.50
2018-02-11T07:52:22.720Z,17.30
2018-02-11T07:53:22.731Z,15.80
2018-02-11T07:54:22.741Z,15.60
2018-02-11T07:55:22.758Z,15.80
2018-02-11T07:56:22.772Z,15.60
2018-02-11T07:57:22.834Z,13.20
2018-02-11T07:58:22.833Z,15.10
2018-02-11T07:59:22.804Z,15.60
2018-02-11T08:00:22.845Z,14.30
2018-02-11T08:01:22.828Z,14.70
2018-02-11T08:02:22.885Z,12.20
2018-02-11T08:03:22.847Z,14.80
2018-02-11T08:04:22.863Z,13.10
2018-02-11T08:05:22.873Z,14.70
2018-02-11T08:06:22.881Z,14.30
2018-02-11T08:07:22.927Z,12.70
2018-02-11T08:08:22.907Z,13.90
2018-02-11T08:09:22.942Z,11.10
2018-02-11T08:10:22.937Z,12.40
2018-02-11T08:11:22.951Z,12.10
2018-02-11T08:12:22.969Z,12.00
2018-02-11T08:13:22.970Z,11.90
2018-02-11T08:14:22.980Z,11.00
2018-02-11T08:15:22.995Z,10.60
2018-02-11T08:16:23.001Z,9.70
2018-02-11T08:17:23.016Z,12.60
2018-02-11T08:18:23.028Z,13.00
2018-02-11T08:19:23.056Z,11.90
2018-02-11T08:20:23.066Z,11.60
2018-02-11T08:21:23.085Z,12.00
2018-02-11T08:22:23.077Z,11.50
2018-02-11T08:23:23.092Z,12.10
2018-02-11T08:24:23.100Z,11.70
2018-02-11T08:25:23.109Z,11.50
2018-02-11T08:26:23.123Z,12.60
2018-02-11T08:27:23.137Z,12.30
2018-02-11T08:28:23.159Z,9.50
2018-02-11T08:29:23.177Z,14.60
2018-02-11T08:30:23.173Z,9.40
2018-02-11T08:31:23.197Z,10.00
2018-02-11T08:32:23.199Z,10.70
2018-02-11T08:33:23.213Z,10.10
2018-02-11T08:34:23.222Z,9.20
2018-02-11T08:35:23.237Z,10.00
2018-02-11T08:36:23.249Z,8.70
2018-02-11T08:37:23.261Z,9.90
2018-02-11T08:38:23.274Z,10.30
2018-02-11T08:39:23.286Z,9.10
2018-02-11T08:40:23.298Z,8.50
2018-02-11T08:41:23.317Z,8.00
2018-02-11T08:42:23.323Z,7.50
2018-02-11T08:43:23.341Z,9.90
2018-02-11T08:44:23.349Z,9.20
2018-02-11T08:45:23.362Z,10.60
2018-02-11T08:46:23.376Z,9.20
2018-02-11T08:47:23.391Z,9.30
2018-02-11T08:48:23.403Z,9.70
2018-02-11T08:49:23.436Z,7.50
2018-02-11T08:50:23.429Z,8.60
2018-02-11T08:51:23.445Z,7.40
2018-02-11T08:52:23.455Z,7.60
2018-02-11T08:53:23.469Z,7.70
2018-02-11T08:54:23.489Z,10.70
2018-02-11T08:55:23.497Z,8.40
2018-02-11T08:56:23.502Z,7.80
2018-02-11T08:57:23.518Z,8.60
2018-02-11T08:58:23.533Z,7.20
2018-02-11T08:59:23.539Z,7.70
2018-02-11T09:00:23.556Z,9.10
2018-02-11T09:01:23.570Z,9.10
2018-02-11T09:02:23.592Z,11.60
2018-02-11T09:03:23.594Z,13.20
2018-02-11T09:04:23.615Z,7.70
2018-02-11T09:05:23.622Z,10.00
2018-02-11T09:06:23.655Z,8.10
2018-02-11T09:07:23.679Z,9.50
2018-02-11T09:08:23.660Z,18.80
2018-02-11T09:09:23.678Z,12.60
2018-02-11T09:10:23.686Z,14.10
2018-02-11T09:11:23.696Z,7.80
2018-02-11T09:12:23.709Z,16.00
2018-02-11T09:13:23.729Z,15.30
2018-02-11T09:14:23.736Z,6.20
2018-02-11T09:15:23.761Z,8.10
2018-02-11T09:16:23.760Z,7.40
2018-02-11T09:17:23.774Z,6.90
2018-02-11T09:18:23.786Z,6.10
2018-02-11T09:19:23.803Z,5.30
2018-02-11T09:20:23.815Z,6.40
2018-02-11T09:21:23.833Z,5.30
2018-02-11T09:22:23.842Z,5.90
2018-02-11T09:23:23.854Z,5.30
2018-02-11T09:24:23.866Z,4.90
2018-02-11T09:25:23.883Z,5.10
2018-02-11T09:26:23.906Z,5.10
2018-02-11T09:27:23.950Z,4.90
2018-02-11T09:28:23.920Z,5.60
2018-02-11T09:29:23.937Z,5.30
2018-02-11T09:30:23.950Z,4.80
2018-02-11T09:31:23.962Z,8.40
2018-02-11T09:32:24.014Z,6.90
2018-02-11T09:33:23.988Z,10.60
2018-02-11T09:34:24.000Z,37.40
2018-02-11T09:35:24.014Z,27.80
2018-02-11T09:36:24.025Z,57.10
2018-02-11T09:37:24.044Z,39.20
2018-02-11T09:38:24.063Z,51.40
2018-02-11T09:39:24.071Z,23.70
2018-02-11T09:40:24.084Z,17.20
2018-02-11T09:41:24.093Z,10.80
2018-02-11T09:42:24.111Z,11.00
2018-02-11T09:43:24.120Z,7.00
2018-02-11T09:44:24.148Z,6.60
2018-02-11T09:45:24.157Z,7.20
2018-02-11T09:46:24.184Z,5.50
2018-02-11T09:47:24.174Z,5.60
2018-02-11T09:48:24.203Z,5.30
2018-02-11T09:49:24.232Z,5.70
2018-02-11T09:50:24.219Z,4.90
2018-02-11T09:51:24.232Z,5.40
2018-02-11T09:52:24.246Z,5.30
2018-02-11T09:53:24.259Z,5.20
2018-02-11T09:54:24.274Z,5.30
2018-02-11T09:55:24.289Z,4.90
2018-02-11T09:56:24.303Z,5.00
2018-02-11T09:57:24.318Z,4.90
2018-02-11T09:58:24.329Z,4.50
2018-02-11T09:59:24.348Z,5.40
2018-02-11T10:00:24.357Z,5.80
2018-02-11T10:01:24.371Z,4.40
2018-02-11T10:02:24.386Z,4.80
2018-02-11T10:03:24.397Z,5.80
2018-02-11T10:04:24.413Z,5.10
2018-02-11T10:05:24.428Z,7.10
2018-02-11T10:06:24.441Z,6.80
2018-02-11T10:07:24.462Z,4.60
2018-02-11T10:08:24.468Z,5.70
2018-02-11T10:09:24.490Z,7.10
2018-02-11T10:10:24.497Z,5.60
2018-02-11T10:11:24.512Z,4.50
2018-02-11T10:12:24.521Z,4.00
2018-02-11T10:13:24.551Z,4.40
2018-02-11T10:14:24.550Z,4.40
2018-02-11T10:15:24.567Z,4.80
2018-02-11T10:16:24.579Z,4.50
2018-02-11T10:17:24.592Z,4.50
2018-02-11T10:18:24.608Z,4.00
2018-02-11T10:19:24.618Z,4.00
2018-02-11T10:20:24.632Z,4.40
2018-02-11T10:21:24.642Z,4.20
2018-02-11T10:22:24.657Z,5.40
2018-02-11T10:23:24.670Z,5.90
2018-02-11T10:24:24.697Z,5.00
2018-02-11T10:25:24.715Z,4.60
2018-02-11T10:26:24.713Z,5.10
2018-02-11T10:27:24.733Z,5.10
2018-02-11T10:28:24.749Z,5.00
2018-02-11T10:29:24.753Z,4.40
2018-02-11T10:30:24.774Z,4.50
2018-02-11T10:31:24.780Z,6.80
2018-02-11T10:32:24.798Z,5.40
2018-02-11T10:33:24.807Z,4.60
2018-02-11T10:34:24.820Z,5.50
2018-02-11T10:35:24.834Z,4.40
2018-02-11T10:36:24.849Z,3.70
2018-02-11T10:37:24.866Z,4.00
2018-02-11T10:38:24.876Z,3.60
2018-02-11T10:39:24.891Z,3.50
2018-02-11T10:40:24.907Z,3.50
2018-02-11T10:41:24.916Z,4.40
2018-02-11T10:42:24.934Z,4.10
2018-02-11T10:43:24.952Z,6.10
2018-02-11T10:44:24.955Z,7.00
2018-02-11T10:45:24.971Z,7.50
2018-02-11T10:46:24.984Z,5.30
2018-02-11T10:47:24.996Z,4.20
2018-02-11T10:48:25.010Z,4.30
2018-02-11T10:49:25.025Z,4.30
2018-02-11T10:50:25.070Z,4.40
2018-02-11T10:51:25.301Z,5.70
2018-02-11T10:52:25.068Z,5.30
2018-02-11T10:53:25.076Z,4.50
2018-02-11T10:54:25.116Z,4.30
2018-02-11T10:55:25.103Z,4.40
2018-02-11T10:56:25.114Z,4.70
2018-02-11T10:57:25.129Z,5.70
2018-02-11T10:58:25.145Z,9.50
2018-02-11T10:59:25.158Z,6.20
2018-02-11T11:00:25.171Z,7.70
2018-02-11T11:01:25.197Z,11.00
2018-02-11T11:02:25.195Z,8.70
2018-02-11T11:03:25.207Z,9.80
2018-02-11T11:04:25.225Z,8.60
2018-02-11T11:05:25.237Z,8.10
2018-02-11T11:06:25.248Z,8.80
2018-02-11T11:07:25.261Z,11.90
2018-02-11T11:08:25.276Z,6.40
2018-02-11T11:09:25.288Z,7.40
2018-02-11T11:10:25.302Z,6.20
2018-02-11T11:11:25.317Z,5.60
2018-02-11T11:12:25.331Z,8.80
2018-02-11T11:13:25.340Z,8.10
2018-02-11T11:14:25.355Z,8.70
2018-02-11T11:15:25.372Z,5.30
2018-02-11T11:16:25.380Z,5.80
2018-02-11T11:17:25.404Z,5.80
2018-02-11T11:18:25.410Z,8.80
2018-02-11T11:19:25.429Z,9.60
2018-02-11T11:20:25.432Z,7.90
2018-02-11T11:21:25.456Z,10.70
2018-02-11T11:22:25.460Z,6.50
2018-02-11T11:23:25.473Z,12.70
2018-02-11T11:24:25.487Z,15.80
2018-02-11T11:25:25.501Z,8.60
2018-02-11T11:26:25.513Z,8.60
2018-02-11T11:27:25.529Z,4.80
2018-02-11T11:28:25.539Z,4.60
2018-02-11T11:29:25.567Z,14.20
2018-02-11T11:30:25.567Z,11.30
2018-02-11T11:31:25.609Z,5.10
2018-02-11T11:32:25.599Z,6.10
2018-02-11T11:33:25.607Z,8.50
2018-02-11T11:34:25.621Z,7.10
2018-02-11T11:35:25.637Z,9.00
2018-02-11T11:36:25.650Z,7.90
2018-02-11T11:37:25.661Z,5.90
2018-02-11T11:38:25.676Z,6.40
2018-02-11T11:39:25.689Z,5.20
2018-02-11T11:40:25.700Z,7.20
2018-02-11T11:41:25.713Z,9.30
2018-02-11T11:42:25.729Z,7.00
2018-02-11T11:43:25.742Z,6.90
2018-02-11T11:44:25.822Z,5.00
2018-02-11T11:45:25.771Z,5.40
2018-02-11T11:46:25.785Z,9.90
2018-02-11T11:47:25.795Z,7.90
2018-02-11T11:48:25.807Z,11.80
2018-02-11T11:49:25.826Z,11.90
2018-02-11T11:50:25.835Z,17.00
2018-02-11T11:51:25.848Z,18.40
2018-02-11T11:52:25.895Z,17.60
2018-02-11T11:53:25.877Z,8.60
2018-02-11T11:54:25.893Z,12.50
2018-02-11T11:55:25.982Z,24.00
2018-02-11T11:56:25.926Z,16.20
2018-02-11T11:57:25.938Z,13.00
2018-02-11T11:58:25.946Z,8.20
2018-02-11T11:59:25.968Z,8.10
2018-02-11T12:00:25.973Z,6.80
2018-02-11T12:01:25.987Z,5.50
2018-02-11T12:02:26.001Z,4.60
2018-02-11T12:03:26.013Z,5.10
2018-02-11T12:04:26.026Z,5.10
2018-02-11T12:05:26.055Z,4.60
2018-02-11T12:06:26.055Z,4.20
2018-02-11T12:07:26.069Z,3.70
2018-02-11T12:08:26.083Z,3.60
2018-02-11T12:09:26.098Z,4.30
2018-02-11T12:10:26.114Z,3.70
2018-02-11T12:11:26.122Z,4.40
2018-02-11T12:12:26.136Z,5.50
2018-02-11T12:13:26.150Z,5.20
2018-02-11T12:14:26.163Z,3.50
2018-02-11T12:15:26.179Z,4.30
2018-02-11T12:16:26.191Z,3.90
2018-02-11T12:17:26.210Z,4.20
2018-02-11T12:18:26.229Z,4.50
2018-02-11T12:19:26.231Z,4.30
2018-02-11T12:20:26.246Z,3.50
2018-02-11T12:21:26.258Z,3.50
2018-02-11T12:22:26.274Z,3.80
2018-02-11T12:23:26.300Z,4.40
2018-02-11T12:24:26.299Z,4.00
2018-02-11T12:25:26.316Z,5.00
2018-02-11T12:26:26.328Z,4.50
2018-02-11T12:27:26.343Z,4.10
2018-02-11T12:28:26.356Z,4.70
2018-02-11T12:29:26.372Z,4.90
2018-02-11T12:30:26.381Z,4.90
2018-02-11T12:31:26.396Z,4.60
2018-02-11T12:32:26.413Z,4.90
2018-02-11T12:33:26.428Z,4.80
2018-02-11T12:34:26.446Z,4.70
2018-02-11T12:35:26.453Z,4.10
2018-02-11T12:36:26.468Z,4.80
2018-02-11T12:37:26.482Z,5.70
2018-02-11T12:38:26.501Z,4.20
2018-02-11T12:39:26.552Z,4.00
2018-02-11T12:40:26.522Z,4.10
2018-02-11T12:41:26.536Z,5.40
2018-02-11T12:42:26.571Z,6.70
2018-02-11T12:43:26.566Z,6.60
2018-02-11T12:44:26.576Z,7.30
2018-02-11T12:45:26.597Z,7.90
2018-02-11T12:46:26.612Z,6.90
2018-02-11T12:47:26.623Z,4.70
2018-02-11T12:48:26.637Z,5.30
2018-02-11T12:49:26.656Z,4.40
2018-02-11T12:50:26.669Z,4.20
2018-02-11T12:51:26.677Z,5.30
2018-02-11T12:52:26.694Z,4.20
2018-02-11T12:53:26.711Z,5.90
2018-02-11T12:54:26.718Z,4.10
2018-02-11T12:55:26.736Z,4.40
2018-02-11T12:56:26.753Z,4.30
2018-02-11T12:57:26.760Z,4.90
2018-02-11T12:58:26.777Z,6.40
2018-02-11T12:59:26.789Z,5.50
2018-02-11T13:00:26.803Z,5.70